sensor_id;sensor_type;location;lat;lon;timestamp;P1;durP1;ratioP1;P2;durP2;ratioP2
75386;SDS011;63966;47.914;22.266;2022-10-17T00:02:14;26.67;;;14.07;;
75386;SDS011;63966;47.914;22.266;2022-10-17T00:05:18;32.20;;;15.48;;
75386;SDS011;63966;47.914;22.266;2022-10-17T00:08:21;34.23;;;16.07;;
75386;SDS011;63966;47.914;22.266;2022-10-17T00:11:24;32.47;;;15.30;;
75386;SDS011;63966;47.914;22.266;2022-10-17T00:14:28;25.75;;;13.13;;
75386;SDS011;63966;47.914;22.266;2022-10-17T00:17:31;25.95;;;13.77;;
75386;SDS011;63966;47.914;22.266;2022-10-17T00:20:35;26.92;;;13.75;;
75386;SDS011;63966;47.914;22.266;2022-10-17T00:23:38;27.03;;;13.50;;
75386;SDS011;63966;47.914;22.266;2022-10-17T00:26:42;27.70;;;14.00;;
75386;SDS011;63966;47.914;22.266;2022-10-17T00:29:48;27.90;;;14.45;;
75386;SDS011;63966;47.914;22.266;2022-10-17T00:32:53;27.13;;;13.15;;
75386;SDS011;63966;47.914;22.266;2022-10-17T00:36:06;28.90;;;13.48;;
75386;SDS011;63966;47.914;22.266;2022-10-17T00:39:14;26.23;;;14.03;;
75386;SDS011;63966;47.914;22.266;2022-10-17T00:42:18;30.53;;;14.83;;
75386;SDS011;63966;47.914;22.266;2022-10-17T00:48:27;26.23;;;13.73;;
75386;SDS011;63966;47.914;22.266;2022-10-17T00:51:39;29.35;;;14.13;;
75386;SDS011;63966;47.914;22.266;2022-10-17T00:54:55;28.47;;;14.17;;
75386;SDS011;63966;47.914;22.266;2022-10-17T00:58:03;27.70;;;14.10;;
75386;SDS011;63966;47.914;22.266;2022-10-17T01:01:07;32.63;;;15.82;;
75386;SDS011;63966;47.914;22.266;2022-10-17T01:04:11;30.27;;;14.23;;
75386;SDS011;63966;47.914;22.266;2022-10-17T01:07:14;33.15;;;15.77;;
75386;SDS011;63966;47.914;22.266;2022-10-17T01:10:18;32.00;;;16.57;;
75386;SDS011;63966;47.914;22.266;2022-10-17T01:13:29;36.40;;;14.10;;
75386;SDS011;63966;47.914;22.266;2022-10-17T01:16:48;39.55;;;19.38;;
75386;SDS011;63966;47.914;22.266;2022-10-17T01:37:42;37.10;;;17.25;;
75386;SDS011;63966;47.914;22.266;2022-10-17T01:41:14;40.95;;;17.08;;
75386;SDS011;63966;47.914;22.266;2022-10-17T01:44:27;40.63;;;17.37;;
75386;SDS011;63966;47.914;22.266;2022-10-17T01:47:57;79.60;;;28.17;;
75386;SDS011;63966;47.914;22.266;2022-10-17T01:51:07;97.05;;;29.45;;
75386;SDS011;63966;47.914;22.266;2022-10-17T01:57:30;42.70;;;17.85;;
75386;SDS011;63966;47.914;22.266;2022-10-17T02:00:41;48.43;;;18.53;;
75386;SDS011;63966;47.914;22.266;2022-10-17T02:03:46;54.00;;;19.13;;
75386;SDS011;63966;47.914;22.266;2022-10-17T02:06:52;51.08;;;18.75;;
75386;SDS011;63966;47.914;22.266;2022-10-17T02:09:55;41.78;;;18.33;;
75386;SDS011;63966;47.914;22.266;2022-10-17T02:13:12;37.85;;;17.63;;
75386;SDS011;63966;47.914;22.266;2022-10-17T02:22:53;54.50;;;23.42;;
75386;SDS011;63966;47.914;22.266;2022-10-17T02:35:58;53.40;;;25.70;;
75386;SDS011;63966;47.914;22.266;2022-10-17T02:39:05;83.13;;;24.95;;
75386;SDS011;63966;47.914;22.266;2022-10-17T02:42:17;51.53;;;22.77;;
75386;SDS011;63966;47.914;22.266;2022-10-17T02:45:22;53.33;;;25.25;;
75386;SDS011;63966;47.914;22.266;2022-10-17T02:48:44;52.77;;;23.43;;
75386;SDS011;63966;47.914;22.266;2022-10-17T02:52:01;44.77;;;21.77;;
75386;SDS011;63966;47.914;22.266;2022-10-17T02:55:28;52.13;;;24.70;;
75386;SDS011;63966;47.914;22.266;2022-10-17T02:58:34;50.30;;;23.17;;
75386;SDS011;63966;47.914;22.266;2022-10-17T03:01:39;55.00;;;24.27;;
75386;SDS011;63966;47.914;22.266;2022-10-17T03:04:44;48.93;;;21.77;;
75386;SDS011;63966;47.914;22.266;2022-10-17T03:07:50;42.77;;;19.93;;
75386;SDS011;63966;47.914;22.266;2022-10-17T03:10:54;49.10;;;24.15;;
75386;SDS011;63966;47.914;22.266;2022-10-17T03:14:00;46.00;;;21.02;;
75386;SDS011;63966;47.914;22.266;2022-10-17T03:17:03;45.58;;;19.27;;
75386;SDS011;63966;47.914;22.266;2022-10-17T03:20:07;46.47;;;21.87;;
75386;SDS011;63966;47.914;22.266;2022-10-17T03:23:10;50.40;;;23.53;;
75386;SDS011;63966;47.914;22.266;2022-10-17T03:26:14;46.67;;;21.48;;
75386;SDS011;63966;47.914;22.266;2022-10-17T03:29:18;46.03;;;20.83;;
75386;SDS011;63966;47.914;22.266;2022-10-17T03:32:22;43.60;;;20.92;;
75386;SDS011;63966;47.914;22.266;2022-10-17T03:35:25;44.50;;;21.57;;
75386;SDS011;63966;47.914;22.266;2022-10-17T03:38:29;44.30;;;20.70;;
75386;SDS011;63966;47.914;22.266;2022-10-17T03:41:33;44.28;;;20.98;;
75386;SDS011;63966;47.914;22.266;2022-10-17T03:44:36;42.10;;;21.13;;
75386;SDS011;63966;47.914;22.266;2022-10-17T03:47:40;42.42;;;20.95;;
75386;SDS011;63966;47.914;22.266;2022-10-17T03:50:44;48.23;;;21.87;;
75386;SDS011;63966;47.914;22.266;2022-10-17T03:53:48;70.50;;;23.57;;
75386;SDS011;63966;47.914;22.266;2022-10-17T03:56:51;92.30;;;22.73;;
75386;SDS011;63966;47.914;22.266;2022-10-17T03:59:55;60.40;;;23.52;;
75386;SDS011;63966;47.914;22.266;2022-10-17T04:02:58;39.38;;;17.50;;
75386;SDS011;63966;47.914;22.266;2022-10-17T04:06:02;47.27;;;20.93;;
75386;SDS011;63966;47.914;22.266;2022-10-17T04:09:09;38.30;;;17.80;;
75386;SDS011;63966;47.914;22.266;2022-10-17T04:12:23;75.07;;;18.75;;
75386;SDS011;63966;47.914;22.266;2022-10-17T04:15:27;54.83;;;19.90;;
75386;SDS011;63966;47.914;22.266;2022-10-17T04:18:31;46.65;;;19.42;;
75386;SDS011;63966;47.914;22.266;2022-10-17T04:21:34;37.97;;;18.00;;
75386;SDS011;63966;47.914;22.266;2022-10-17T04:24:41;44.17;;;18.60;;
75386;SDS011;63966;47.914;22.266;2022-10-17T04:27:52;39.60;;;18.00;;
75386;SDS011;63966;47.914;22.266;2022-10-17T04:31:03;37.42;;;17.88;;
75386;SDS011;63966;47.914;22.266;2022-10-17T04:34:18;39.83;;;18.30;;
75386;SDS011;63966;47.914;22.266;2022-10-17T04:37:22;41.77;;;19.77;;
75386;SDS011;63966;47.914;22.266;2022-10-17T04:40:28;38.60;;;19.33;;
75386;SDS011;63966;47.914;22.266;2022-10-17T04:43:34;37.00;;;17.30;;
75386;SDS011;63966;47.914;22.266;2022-10-17T04:46:39;33.20;;;16.17;;
75386;SDS011;63966;47.914;22.266;2022-10-17T04:49:42;38.50;;;18.40;;
75386;SDS011;63966;47.914;22.266;2022-10-17T04:52:49;38.67;;;19.03;;
75386;SDS011;63966;47.914;22.266;2022-10-17T04:55:53;38.77;;;18.90;;
75386;SDS011;63966;47.914;22.266;2022-10-17T04:58:57;36.20;;;19.17;;
75386;SDS011;63966;47.914;22.266;2022-10-17T05:02:01;39.25;;;17.67;;
75386;SDS011;63966;47.914;22.266;2022-10-17T05:05:05;45.85;;;19.17;;
75386;SDS011;63966;47.914;22.266;2022-10-17T05:08:09;42.13;;;21.23;;
75386;SDS011;63966;47.914;22.266;2022-10-17T05:11:21;37.93;;;19.30;;
75386;SDS011;63966;47.914;22.266;2022-10-17T05:14:29;44.22;;;21.50;;
75386;SDS011;63966;47.914;22.266;2022-10-17T05:17:32;38.90;;;18.55;;
75386;SDS011;63966;47.914;22.266;2022-10-17T05:20:36;46.50;;;19.00;;
75386;SDS011;63966;47.914;22.266;2022-10-17T05:23:40;35.40;;;17.83;;
75386;SDS011;63966;47.914;22.266;2022-10-17T05:26:44;35.33;;;18.27;;
75386;SDS011;63966;47.914;22.266;2022-10-17T05:29:47;37.00;;;17.90;;
75386;SDS011;63966;47.914;22.266;2022-10-17T05:32:59;35.05;;;17.35;;
75386;SDS011;63966;47.914;22.266;2022-10-17T05:36:03;36.22;;;17.08;;
75386;SDS011;63966;47.914;22.266;2022-10-17T05:39:10;37.73;;;18.30;;
75386;SDS011;63966;47.914;22.266;2022-10-17T05:42:16;33.00;;;16.03;;
75386;SDS011;63966;47.914;22.266;2022-10-17T05:45:20;32.92;;;16.23;;
75386;SDS011;63966;47.914;22.266;2022-10-17T05:48:24;36.47;;;18.33;;
75386;SDS011;63966;47.914;22.266;2022-10-17T05:51:27;32.95;;;16.70;;
75386;SDS011;63966;47.914;22.266;2022-10-17T05:54:31;33.07;;;16.60;;
75386;SDS011;63966;47.914;22.266;2022-10-17T05:57:35;35.60;;;16.90;;
75386;SDS011;63966;47.914;22.266;2022-10-17T06:00:43;39.65;;;18.80;;
75386;SDS011;63966;47.914;22.266;2022-10-17T06:03:47;31.83;;;19.15;;
75386;SDS011;63966;47.914;22.266;2022-10-17T06:06:54;25.73;;;14.90;;
75386;SDS011;63966;47.914;22.266;2022-10-17T06:09:58;22.70;;;14.57;;
75386;SDS011;63966;47.914;22.266;2022-10-17T06:13:02;21.47;;;14.50;;
75386;SDS011;63966;47.914;22.266;2022-10-17T06:16:06;26.38;;;15.52;;
75386;SDS011;63966;47.914;22.266;2022-10-17T06:19:10;25.75;;;15.65;;
75386;SDS011;63966;47.914;22.266;2022-10-17T06:22:14;28.92;;;17.27;;
75386;SDS011;63966;47.914;22.266;2022-10-17T06:25:18;27.90;;;16.73;;
75386;SDS011;63966;47.914;22.266;2022-10-17T06:28:21;29.70;;;16.83;;
75386;SDS011;63966;47.914;22.266;2022-10-17T06:31:25;21.27;;;13.60;;
75386;SDS011;63966;47.914;22.266;2022-10-17T06:34:28;19.70;;;13.65;;
75386;SDS011;63966;47.914;22.266;2022-10-17T06:37:32;19.92;;;12.50;;
75386;SDS011;63966;47.914;22.266;2022-10-17T06:40:41;20.47;;;12.60;;
75386;SDS011;63966;47.914;22.266;2022-10-17T06:43:45;21.53;;;12.23;;
75386;SDS011;63966;47.914;22.266;2022-10-17T06:47:08;16.95;;;12.02;;
75386;SDS011;63966;47.914;22.266;2022-10-17T06:50:12;20.25;;;12.50;;
75386;SDS011;63966;47.914;22.266;2022-10-17T06:53:21;17.48;;;12.77;;
75386;SDS011;63966;47.914;22.266;2022-10-17T06:56:59;18.27;;;12.57;;
75386;SDS011;63966;47.914;22.266;2022-10-17T07:00:29;17.97;;;12.17;;
75386;SDS011;63966;47.914;22.266;2022-10-17T07:03:32;18.10;;;12.85;;
75386;SDS011;63966;47.914;22.266;2022-10-17T07:06:37;16.67;;;12.80;;
75386;SDS011;63966;47.914;22.266;2022-10-17T07:09:52;17.50;;;12.30;;
75386;SDS011;63966;47.914;22.266;2022-10-17T07:12:56;18.20;;;12.17;;
75386;SDS011;63966;47.914;22.266;2022-10-17T07:16:00;16.30;;;11.80;;
75386;SDS011;63966;47.914;22.266;2022-10-17T07:19:06;19.30;;;12.85;;
75386;SDS011;63966;47.914;22.266;2022-10-17T07:22:11;19.10;;;12.55;;
75386;SDS011;63966;47.914;22.266;2022-10-17T07:25:18;17.75;;;11.73;;
75386;SDS011;63966;47.914;22.266;2022-10-17T07:28:26;20.03;;;12.50;;
75386;SDS011;63966;47.914;22.266;2022-10-17T07:31:33;18.33;;;12.13;;
75386;SDS011;63966;47.914;22.266;2022-10-17T07:34:37;24.50;;;12.35;;
75386;SDS011;63966;47.914;22.266;2022-10-17T07:37:42;20.77;;;13.27;;
75386;SDS011;63966;47.914;22.266;2022-10-17T07:40:55;18.83;;;13.05;;
75386;SDS011;63966;47.914;22.266;2022-10-17T07:43:59;19.50;;;13.00;;
75386;SDS011;63966;47.914;22.266;2022-10-17T07:47:08;20.63;;;12.47;;
75386;SDS011;63966;47.914;22.266;2022-10-17T07:50:12;16.90;;;11.85;;
75386;SDS011;63966;47.914;22.266;2022-10-17T07:53:15;19.20;;;11.45;;
75386;SDS011;63966;47.914;22.266;2022-10-17T07:56:19;17.85;;;11.95;;
75386;SDS011;63966;47.914;22.266;2022-10-17T07:59:25;21.37;;;11.77;;
75386;SDS011;63966;47.914;22.266;2022-10-17T08:02:29;23.17;;;12.63;;
75386;SDS011;63966;47.914;22.266;2022-10-17T08:05:33;21.98;;;12.57;;
75386;SDS011;63966;47.914;22.266;2022-10-17T08:08:36;21.90;;;13.90;;
75386;SDS011;63966;47.914;22.266;2022-10-17T08:11:41;19.45;;;12.80;;
75386;SDS011;63966;47.914;22.266;2022-10-17T08:14:45;24.63;;;13.83;;
75386;SDS011;63966;47.914;22.266;2022-10-17T08:17:49;24.37;;;14.50;;
75386;SDS011;63966;47.914;22.266;2022-10-17T08:20:53;29.48;;;14.73;;
75386;SDS011;63966;47.914;22.266;2022-10-17T08:24:01;24.30;;;14.45;;
75386;SDS011;63966;47.914;22.266;2022-10-17T08:27:05;27.80;;;14.50;;
75386;SDS011;63966;47.914;22.266;2022-10-17T08:30:13;22.77;;;13.40;;
75386;SDS011;63966;47.914;22.266;2022-10-17T08:33:17;19.97;;;13.00;;
75386;SDS011;63966;47.914;22.266;2022-10-17T08:36:21;22.38;;;12.55;;
75386;SDS011;63966;47.914;22.266;2022-10-17T08:39:24;21.73;;;12.75;;
75386;SDS011;63966;47.914;22.266;2022-10-17T08:45:53;23.77;;;13.87;;
75386;SDS011;63966;47.914;22.266;2022-10-17T08:49:06;23.93;;;15.10;;
75386;SDS011;63966;47.914;22.266;2022-10-17T08:52:20;22.30;;;13.57;;
75386;SDS011;63966;47.914;22.266;2022-10-17T08:55:43;20.30;;;12.35;;
75386;SDS011;63966;47.914;22.266;2022-10-17T08:58:48;22.08;;;12.45;;
75386;SDS011;63966;47.914;22.266;2022-10-17T09:02:05;21.53;;;12.93;;
75386;SDS011;63966;47.914;22.266;2022-10-17T09:12:12;20.00;;;10.90;;
75386;SDS011;63966;47.914;22.266;2022-10-17T09:15:36;19.02;;;10.55;;
75386;SDS011;63966;47.914;22.266;2022-10-17T09:22:27;20.13;;;10.60;;
75386;SDS011;63966;47.914;22.266;2022-10-17T09:25:43;17.92;;;11.05;;
75386;SDS011;63966;47.914;22.266;2022-10-17T09:28:53;18.73;;;9.80;;
75386;SDS011;63966;47.914;22.266;2022-10-17T09:32:01;16.23;;;9.00;;
75386;SDS011;63966;47.914;22.266;2022-10-17T09:35:12;15.53;;;9.47;;
75386;SDS011;63966;47.914;22.266;2022-10-17T09:38:18;16.13;;;9.70;;
75386;SDS011;63966;47.914;22.266;2022-10-17T09:41:26;16.55;;;10.00;;
75386;SDS011;63966;47.914;22.266;2022-10-17T09:44:50;17.33;;;10.15;;
75386;SDS011;63966;47.914;22.266;2022-10-17T09:48:14;17.35;;;10.32;;
75386;SDS011;63966;47.914;22.266;2022-10-17T09:51:42;16.20;;;9.07;;
75386;SDS011;63966;47.914;22.266;2022-10-17T09:54:50;17.73;;;9.87;;
75386;SDS011;63966;47.914;22.266;2022-10-17T09:57:57;20.08;;;9.38;;
75386;SDS011;63966;47.914;22.266;2022-10-17T10:01:13;18.73;;;10.52;;
75386;SDS011;63966;47.914;22.266;2022-10-17T10:04:24;16.35;;;9.90;;
75386;SDS011;63966;47.914;22.266;2022-10-17T10:07:35;15.47;;;9.50;;
75386;SDS011;63966;47.914;22.266;2022-10-17T10:10:40;17.50;;;9.13;;
75386;SDS011;63966;47.914;22.266;2022-10-17T10:13:45;16.17;;;9.57;;
75386;SDS011;63966;47.914;22.266;2022-10-17T10:16:50;14.90;;;8.63;;
75386;SDS011;63966;47.914;22.266;2022-10-17T10:19:57;15.45;;;9.05;;
75386;SDS011;63966;47.914;22.266;2022-10-17T10:23:18;20.63;;;8.93;;
75386;SDS011;63966;47.914;22.266;2022-10-17T10:26:24;14.73;;;7.83;;
75386;SDS011;63966;47.914;22.266;2022-10-17T10:29:56;13.50;;;7.68;;
75386;SDS011;63966;47.914;22.266;2022-10-17T10:32:59;12.85;;;7.82;;
75386;SDS011;63966;47.914;22.266;2022-10-17T10:36:04;11.52;;;7.40;;
75386;SDS011;63966;47.914;22.266;2022-10-17T10:39:10;11.40;;;6.80;;
75386;SDS011;63966;47.914;22.266;2022-10-17T10:48:59;14.52;;;8.05;;
75386;SDS011;63966;47.914;22.266;2022-10-17T10:52:03;13.13;;;7.15;;
75386;SDS011;63966;47.914;22.266;2022-10-17T10:55:14;13.93;;;7.83;;
75386;SDS011;63966;47.914;22.266;2022-10-17T10:58:31;12.60;;;7.20;;
75386;SDS011;63966;47.914;22.266;2022-10-17T11:05:12;12.30;;;7.70;;
75386;SDS011;63966;47.914;22.266;2022-10-17T11:11:56;11.53;;;7.87;;
75386;SDS011;63966;47.914;22.266;2022-10-17T11:15:13;12.03;;;5.97;;
75386;SDS011;63966;47.914;22.266;2022-10-17T11:18:34;12.18;;;6.45;;
75386;SDS011;63966;47.914;22.266;2022-10-17T11:28:30;11.80;;;6.00;;
75386;SDS011;63966;47.914;22.266;2022-10-17T11:31:35;40.70;;;7.57;;
75386;SDS011;63966;47.914;22.266;2022-10-17T11:34:43;203.70;;;19.13;;
75386;SDS011;63966;47.914;22.266;2022-10-17T11:37:54;108.63;;;11.20;;
75386;SDS011;63966;47.914;22.266;2022-10-17T11:41:45;16.80;;;6.32;;
75386;SDS011;63966;47.914;22.266;2022-10-17T11:44:51;26.03;;;9.53;;
75386;SDS011;63966;47.914;22.266;2022-10-17T11:48:05;22.17;;;8.47;;
75386;SDS011;63966;47.914;22.266;2022-10-17T11:51:15;23.67;;;7.80;;
75386;SDS011;63966;47.914;22.266;2022-10-17T11:54:40;13.80;;;7.53;;
75386;SDS011;63966;47.914;22.266;2022-10-17T11:57:53;14.93;;;7.93;;
75386;SDS011;63966;47.914;22.266;2022-10-17T12:04:50;19.77;;;7.20;;
75386;SDS011;63966;47.914;22.266;2022-10-17T12:08:08;12.02;;;5.95;;
75386;SDS011;63966;47.914;22.266;2022-10-17T12:14:51;13.43;;;6.95;;
75386;SDS011;63966;47.914;22.266;2022-10-17T12:17:59;10.67;;;6.47;;
75386;SDS011;63966;47.914;22.266;2022-10-17T12:21:04;12.40;;;5.83;;
75386;SDS011;63966;47.914;22.266;2022-10-17T12:24:11;10.48;;;6.25;;
75386;SDS011;63966;47.914;22.266;2022-10-17T12:27:38;9.52;;;5.55;;
75386;SDS011;63966;47.914;22.266;2022-10-17T12:34:33;13.03;;;6.10;;
75386;SDS011;63966;47.914;22.266;2022-10-17T12:40:54;12.00;;;6.53;;
75386;SDS011;63966;47.914;22.266;2022-10-17T12:43:58;15.13;;;6.88;;
75386;SDS011;63966;47.914;22.266;2022-10-17T12:54:13;12.23;;;5.87;;
75386;SDS011;63966;47.914;22.266;2022-10-17T13:00:58;11.32;;;5.97;;
75386;SDS011;63966;47.914;22.266;2022-10-17T13:04:22;11.65;;;5.72;;
75386;SDS011;63966;47.914;22.266;2022-10-17T13:07:26;9.43;;;5.87;;
75386;SDS011;63966;47.914;22.266;2022-10-17T13:10:32;10.67;;;5.67;;
75386;SDS011;63966;47.914;22.266;2022-10-17T13:13:44;13.02;;;5.50;;
75386;SDS011;63966;47.914;22.266;2022-10-17T13:20:01;9.48;;;5.72;;
75386;SDS011;63966;47.914;22.266;2022-10-17T13:23:04;15.47;;;5.97;;
75386;SDS011;63966;47.914;22.266;2022-10-17T13:26:24;13.63;;;5.30;;
75386;SDS011;63966;47.914;22.266;2022-10-17T13:29:29;14.55;;;5.70;;
75386;SDS011;63966;47.914;22.266;2022-10-17T13:32:35;12.00;;;5.82;;
75386;SDS011;63966;47.914;22.266;2022-10-17T13:35:39;12.73;;;5.53;;
75386;SDS011;63966;47.914;22.266;2022-10-17T13:39:05;13.37;;;6.03;;
75386;SDS011;63966;47.914;22.266;2022-10-17T13:42:20;10.73;;;5.17;;
75386;SDS011;63966;47.914;22.266;2022-10-17T13:45:33;12.13;;;5.18;;
75386;SDS011;63966;47.914;22.266;2022-10-17T13:48:39;10.65;;;5.30;;
75386;SDS011;63966;47.914;22.266;2022-10-17T13:51:45;9.35;;;5.50;;
75386;SDS011;63966;47.914;22.266;2022-10-17T13:54:51;13.67;;;5.40;;
75386;SDS011;63966;47.914;22.266;2022-10-17T13:57:55;11.10;;;5.50;;
75386;SDS011;63966;47.914;22.266;2022-10-17T14:01:10;9.13;;;5.50;;
75386;SDS011;63966;47.914;22.266;2022-10-17T14:04:15;9.75;;;5.50;;
75386;SDS011;63966;47.914;22.266;2022-10-17T14:07:25;13.40;;;6.20;;
75386;SDS011;63966;47.914;22.266;2022-10-17T14:11:00;11.33;;;6.00;;
75386;SDS011;63966;47.914;22.266;2022-10-17T14:14:05;16.57;;;5.70;;
75386;SDS011;63966;47.914;22.266;2022-10-17T14:17:21;12.77;;;6.05;;
75386;SDS011;63966;47.914;22.266;2022-10-17T14:20:27;11.70;;;6.97;;
75386;SDS011;63966;47.914;22.266;2022-10-17T14:23:52;11.68;;;6.38;;
75386;SDS011;63966;47.914;22.266;2022-10-17T14:27:26;9.87;;;6.17;;
75386;SDS011;63966;47.914;22.266;2022-10-17T14:34:00;13.13;;;7.05;;
75386;SDS011;63966;47.914;22.266;2022-10-17T14:37:12;11.98;;;6.68;;
75386;SDS011;63966;47.914;22.266;2022-10-17T14:40:23;9.98;;;6.07;;
75386;SDS011;63966;47.914;22.266;2022-10-17T14:43:28;11.27;;;6.57;;
75386;SDS011;63966;47.914;22.266;2022-10-17T14:46:33;10.90;;;5.63;;
75386;SDS011;63966;47.914;22.266;2022-10-17T14:49:39;10.32;;;5.57;;
75386;SDS011;63966;47.914;22.266;2022-10-17T14:52:48;9.23;;;5.70;;
75386;SDS011;63966;47.914;22.266;2022-10-17T14:56:20;9.73;;;5.28;;
75386;SDS011;63966;47.914;22.266;2022-10-17T14:59:25;10.97;;;5.93;;
75386;SDS011;63966;47.914;22.266;2022-10-17T15:02:49;10.73;;;5.57;;
75386;SDS011;63966;47.914;22.266;2022-10-17T15:05:53;12.20;;;6.30;;
75386;SDS011;63966;47.914;22.266;2022-10-17T15:08:57;9.07;;;5.68;;
75386;SDS011;63966;47.914;22.266;2022-10-17T15:12:01;13.50;;;6.97;;
75386;SDS011;63966;47.914;22.266;2022-10-17T15:15:08;12.10;;;7.00;;
75386;SDS011;63966;47.914;22.266;2022-10-17T15:18:12;11.97;;;7.17;;
75386;SDS011;63966;47.914;22.266;2022-10-17T15:21:17;15.57;;;7.95;;
75386;SDS011;63966;47.914;22.266;2022-10-17T15:24:34;13.27;;;6.90;;
75386;SDS011;63966;47.914;22.266;2022-10-17T15:27:38;33.55;;;17.35;;
75386;SDS011;63966;47.914;22.266;2022-10-17T15:30:42;24.87;;;13.23;;
75386;SDS011;63966;47.914;22.266;2022-10-17T15:33:46;14.47;;;7.30;;
75386;SDS011;63966;47.914;22.266;2022-10-17T15:36:50;17.23;;;8.50;;
75386;SDS011;63966;47.914;22.266;2022-10-17T15:39:55;23.52;;;13.75;;
75386;SDS011;63966;47.914;22.266;2022-10-17T15:42:58;24.90;;;14.65;;
75386;SDS011;63966;47.914;22.266;2022-10-17T15:46:02;51.43;;;22.07;;
75386;SDS011;63966;47.914;22.266;2022-10-17T15:49:08;45.23;;;20.87;;
75386;SDS011;63966;47.914;22.266;2022-10-17T15:52:16;34.22;;;17.48;;
75386;SDS011;63966;47.914;22.266;2022-10-17T15:55:19;20.95;;;10.82;;
75386;SDS011;63966;47.914;22.266;2022-10-17T15:58:23;23.88;;;11.75;;
75386;SDS011;63966;47.914;22.266;2022-10-17T16:01:29;18.97;;;8.10;;
75386;SDS011;63966;47.914;22.266;2022-10-17T16:04:34;18.23;;;7.90;;
75386;SDS011;63966;47.914;22.266;2022-10-17T16:07:37;34.88;;;15.30;;
75386;SDS011;63966;47.914;22.266;2022-10-17T16:10:41;21.85;;;9.73;;
75386;SDS011;63966;47.914;22.266;2022-10-17T16:13:48;22.42;;;7.50;;
75386;SDS011;63966;47.914;22.266;2022-10-17T16:16:54;23.53;;;7.57;;
75386;SDS011;63966;47.914;22.266;2022-10-17T16:20:01;26.53;;;8.50;;
75386;SDS011;63966;47.914;22.266;2022-10-17T16:23:05;27.00;;;8.88;;
75386;SDS011;63966;47.914;22.266;2022-10-17T16:26:09;19.63;;;10.73;;
75386;SDS011;63966;47.914;22.266;2022-10-17T16:29:15;15.63;;;9.05;;
75386;SDS011;63966;47.914;22.266;2022-10-17T16:32:19;17.13;;;8.50;;
75386;SDS011;63966;47.914;22.266;2022-10-17T16:35:26;22.17;;;11.00;;
75386;SDS011;63966;47.914;22.266;2022-10-17T16:38:37;23.50;;;11.10;;
75386;SDS011;63966;47.914;22.266;2022-10-17T16:41:41;22.55;;;12.20;;
75386;SDS011;63966;47.914;22.266;2022-10-17T16:44:44;45.28;;;23.40;;
75386;SDS011;63966;47.914;22.266;2022-10-17T16:47:48;55.77;;;30.13;;
75386;SDS011;63966;47.914;22.266;2022-10-17T16:50:52;42.43;;;23.30;;
75386;SDS011;63966;47.914;22.266;2022-10-17T16:53:56;47.13;;;27.50;;
75386;SDS011;63966;47.914;22.266;2022-10-17T16:57:01;59.20;;;35.53;;
75386;SDS011;63966;47.914;22.266;2022-10-17T17:00:06;57.72;;;32.08;;
75386;SDS011;63966;47.914;22.266;2022-10-17T17:03:10;63.67;;;32.07;;
75386;SDS011;63966;47.914;22.266;2022-10-17T17:06:14;40.47;;;20.47;;
75386;SDS011;63966;47.914;22.266;2022-10-17T17:09:20;44.38;;;21.98;;
75386;SDS011;63966;47.914;22.266;2022-10-17T17:12:23;45.22;;;20.25;;
75386;SDS011;63966;47.914;22.266;2022-10-17T17:15:27;36.45;;;19.42;;
75386;SDS011;63966;47.914;22.266;2022-10-17T17:18:30;30.23;;;15.33;;
75386;SDS011;63966;47.914;22.266;2022-10-17T17:21:33;31.20;;;16.67;;
75386;SDS011;63966;47.914;22.266;2022-10-17T17:24:37;33.42;;;15.85;;
75386;SDS011;63966;47.914;22.266;2022-10-17T17:27:41;35.88;;;19.23;;
75386;SDS011;63966;47.914;22.266;2022-10-17T17:30:44;39.17;;;20.00;;
75386;SDS011;63966;47.914;22.266;2022-10-17T17:33:48;43.27;;;21.47;;
75386;SDS011;63966;47.914;22.266;2022-10-17T17:36:52;44.60;;;22.47;;
75386;SDS011;63966;47.914;22.266;2022-10-17T17:39:56;56.65;;;27.77;;
75386;SDS011;63966;47.914;22.266;2022-10-17T17:42:59;49.15;;;24.13;;
75386;SDS011;63966;47.914;22.266;2022-10-17T17:46:03;37.75;;;20.05;;
75386;SDS011;63966;47.914;22.266;2022-10-17T17:49:06;42.87;;;19.47;;
75386;SDS011;63966;47.914;22.266;2022-10-17T17:52:10;41.33;;;19.93;;
75386;SDS011;63966;47.914;22.266;2022-10-17T17:55:14;44.05;;;19.70;;
75386;SDS011;63966;47.914;22.266;2022-10-17T17:58:17;62.33;;;26.20;;
75386;SDS011;63966;47.914;22.266;2022-10-17T18:01:22;35.75;;;16.88;;
75386;SDS011;63966;47.914;22.266;2022-10-17T18:04:26;43.60;;;20.77;;
75386;SDS011;63966;47.914;22.266;2022-10-17T18:07:30;35.73;;;19.10;;
75386;SDS011;63966;47.914;22.266;2022-10-17T18:10:35;55.22;;;24.65;;
75386;SDS011;63966;47.914;22.266;2022-10-17T18:13:38;68.75;;;32.22;;
75386;SDS011;63966;47.914;22.266;2022-10-17T18:16:42;45.45;;;21.33;;
75386;SDS011;63966;47.914;22.266;2022-10-17T18:19:45;51.50;;;22.40;;
75386;SDS011;63966;47.914;22.266;2022-10-17T18:22:49;48.70;;;22.80;;
75386;SDS011;63966;47.914;22.266;2022-10-17T18:25:54;45.85;;;24.10;;
75386;SDS011;63966;47.914;22.266;2022-10-17T18:28:59;70.35;;;31.60;;
75386;SDS011;63966;47.914;22.266;2022-10-17T18:32:03;58.83;;;28.52;;
75386;SDS011;63966;47.914;22.266;2022-10-17T18:35:07;56.17;;;27.93;;
75386;SDS011;63966;47.914;22.266;2022-10-17T18:38:10;59.13;;;26.23;;
75386;SDS011;63966;47.914;22.266;2022-10-17T18:41:14;61.95;;;26.73;;
75386;SDS011;63966;47.914;22.266;2022-10-17T18:44:19;50.90;;;25.05;;
75386;SDS011;63966;47.914;22.266;2022-10-17T18:47:22;49.75;;;24.85;;
75386;SDS011;63966;47.914;22.266;2022-10-17T18:50:26;63.37;;;27.40;;
75386;SDS011;63966;47.914;22.266;2022-10-17T18:53:29;55.60;;;24.83;;
75386;SDS011;63966;47.914;22.266;2022-10-17T18:56:33;69.35;;;29.83;;
75386;SDS011;63966;47.914;22.266;2022-10-17T18:59:36;57.97;;;26.60;;
75386;SDS011;63966;47.914;22.266;2022-10-17T19:02:40;74.72;;;36.30;;
75386;SDS011;63966;47.914;22.266;2022-10-17T19:05:44;51.13;;;25.67;;
75386;SDS011;63966;47.914;22.266;2022-10-17T19:08:48;35.47;;;17.83;;
75386;SDS011;63966;47.914;22.266;2022-10-17T19:11:52;48.60;;;23.48;;
75386;SDS011;63966;47.914;22.266;2022-10-17T19:14:55;41.10;;;21.67;;
75386;SDS011;63966;47.914;22.266;2022-10-17T19:17:59;51.83;;;27.35;;
75386;SDS011;63966;47.914;22.266;2022-10-17T19:21:03;63.03;;;30.43;;
75386;SDS011;63966;47.914;22.266;2022-10-17T19:24:27;59.10;;;26.27;;
75386;SDS011;63966;47.914;22.266;2022-10-17T19:27:31;41.42;;;20.35;;
75386;SDS011;63966;47.914;22.266;2022-10-17T19:30:34;44.97;;;21.30;;
75386;SDS011;63966;47.914;22.266;2022-10-17T19:33:38;45.15;;;23.88;;
75386;SDS011;63966;47.914;22.266;2022-10-17T19:36:41;46.57;;;22.93;;
75386;SDS011;63966;47.914;22.266;2022-10-17T19:39:44;49.70;;;25.10;;
75386;SDS011;63966;47.914;22.266;2022-10-17T19:42:50;45.60;;;23.33;;
75386;SDS011;63966;47.914;22.266;2022-10-17T19:45:54;48.03;;;23.25;;
75386;SDS011;63966;47.914;22.266;2022-10-17T19:48:59;40.03;;;21.42;;
75386;SDS011;63966;47.914;22.266;2022-10-17T19:52:04;37.27;;;18.07;;
75386;SDS011;63966;47.914;22.266;2022-10-17T19:55:07;47.00;;;23.27;;